Latest Weather Observations for Mount William

IDV60801

Issued at 6:02 pm EDT Tuesday 3 March 2015 (issued every 30 minutes, with the page automatically refreshed every 10 minutes)

About weather observations | Map of weather stations | Latest weather observations for VIC | Other Formats
Station Details ID: 079103 Name: MOUNT WILLIAM Lat: -37.30 Lon: 142.60 Height: 1150.0 m
Data from the previous 72 hours. | See also: Recent months at Mount William
Date/Time
EDT
Temp
°C
App
Temp
°C
Dew
Point
Rel
Hum
%
Delta-T
°C
Wind Press
QNH
hPa
Press
MSL
hPa
Rain
since 9 am
mm
Dir
 
Spd
km/h
Gust
km/h
Spd
kts
Gust
kts
03/06:00pm 17.3 14.3 4.3 42 6.5 W 9 17 5 9 - - 0.0
03/05:30pm 17.3 13.7 2.9 38 7.0 WSW 11 17 6 9 - - 0.0
03/05:00pm 17.5 14.0 3.4 39 7.0 W 11 20 6 11 - - 0.0
03/04:30pm 17.2 13.6 2.8 38 7.0 W 11 20 6 11 - - 0.0
03/04:00pm 16.8 13.4 2.0 37 7.1 W 9 19 5 10 - - 0.0
03/03:30pm 16.8 13.9 4.8 45 6.1 SW 9 22 5 12 - - 0.0
03/03:00pm 16.3 14.1 5.3 48 5.6 SW 6 13 3 7 - - 0.0
03/02:30pm 15.9 13.6 5.8 51 5.2 W 7 15 4 8 - - 0.0
03/02:00pm 15.2 11.9 2.4 42 6.1 WSW 9 17 5 9 - - 0.0
03/01:30pm 15.2 12.0 4.9 50 5.2 W 11 15 6 8 - - 0.0
03/01:00pm 14.5 11.9 6.1 57 4.3 W 9 13 5 7 - - 0.0
03/12:30pm 13.2 10.6 6.1 62 3.6 WNW 9 19 5 10 - - 0.0
03/12:00pm 13.1 10.4 7.3 68 3.0 WNW 11 15 6 8 - - 0.0
03/11:30am 13.0 11.0 8.5 74 2.4 WSW 9 15 5 8 - - 0.0
03/11:00am 12.3 9.7 7.6 73 2.4 W 11 17 6 9 - - 0.0
03/10:30am 10.9 8.8 6.8 76 2.1 SW 7 13 4 7 - - 0.0
03/10:00am 11.2 9.2 6.1 71 2.5 WSW 6 9 3 5 - - 0.0
03/09:30am 12.2 10.1 5.6 64 3.3 W 6 9 3 5 - - 0.0
03/09:00am 12.0 9.7 4.7 61 3.6 W 6 7 3 4 - - 0.0
03/08:30am 11.5 8.6 4.5 62 3.4 WSW 9 15 5 8 - - 0.0
03/08:00am 11.1 8.1 4.3 63 3.3 WSW 9 15 5 8 - - 0.0
03/07:30am 10.6 7.3 4.3 65 3.0 WSW 11 19 6 10 - - 0.0
03/07:00am 10.6 7.9 5.4 70 2.5 WSW 9 15 5 8 - - 0.0
03/06:30am 10.9 7.3 5.0 67 2.9 W 13 19 7 10 - - 0.0
03/06:00am 11.8 7.7 4.5 61 3.5 WSW 15 20 8 11 - - 0.0
03/05:30am 11.4 8.2 5.3 66 3.0 WSW 11 17 6 9 - - 0.0
03/05:00am 11.8 8.7 5.7 66 3.0 WSW 11 17 6 9 - - 0.0
03/04:30am 12.0 9.0 5.9 66 3.1 WSW 11 20 6 11 - - 0.0
03/04:00am 12.2 8.0 5.8 65 3.2 SW 17 22 9 12 - - 0.0
03/03:30am 11.8 9.0 5.0 63 3.3 SW 9 15 5 8 - - 0.0
03/03:00am 11.0 7.7 4.7 65 3.0 SSW 11 15 6 8 - - 0.0
03/02:30am 11.2 8.0 4.9 65 3.1 SSW 11 17 6 9 - - 0.0
03/02:00am 11.1 7.5 4.8 65 3.1 S 13 19 7 10 - - 0.0
03/01:30am 11.4 7.7 4.6 63 3.3 S 13 17 7 9 - - 0.0
03/01:00am 11.3 6.9 4.5 63 3.3 S 17 22 9 12 - - 0.0
03/12:30am 11.4 6.9 4.4 62 3.4 S 17 19 9 10 - - 0.0
03/12:00am 11.4 8.1 4.6 63 3.3 S 11 19 6 10 - - 0.0
 
Date/Time
EDT
Temp
°C
App
Temp
°C
Dew
Point
Rel
Hum
%
Delta-T
°C
Wind Press
QNH
hPa
Press
MSL
hPa
Rain
since 9 am
mm
Dir
 
Spd
km/h
Gust
km/h
Spd
kts
Gust
kts
02/11:30pm 11.4 8.5 4.8 64 3.2 S 9 15 5 8 - - 0.0
02/11:00pm 11.8 7.7 4.3 60 3.6 S 15 22 8 12 - - 0.0
02/10:30pm 12.3 7.4 4.0 57 4.0 S 19 24 10 13 - - 0.0
02/10:00pm 12.7 8.5 3.9 55 4.2 S 15 24 8 13 - - 0.0
02/09:30pm 12.8 10.2 4.0 55 4.3 S 7 11 4 6 - - 0.0
02/09:00pm 12.9 10.3 4.3 56 4.2 SSW 7 13 4 7 - - 0.0
02/08:30pm 13.5 10.4 3.6 51 4.8 SW 9 13 5 7 - - 0.0
02/08:00pm 14.0 10.8 2.9 47 5.3 WSW 9 17 5 9 - - 0.0
02/07:30pm 14.3 10.0 3.2 47 5.3 SW 15 19 8 10 - - 0.0
02/07:00pm 14.6 11.5 3.4 47 5.4 WSW 9 15 5 8 - - 0.0
02/06:30pm 15.6 12.4 1.0 37 6.8 WSW 7 13 4 7 - - 0.0
02/06:00pm 16.0 12.8 -0.7 32 7.5 WNW 6 9 3 5 - - 0.0
02/05:30pm 15.9 13.3 1.2 37 6.9 NNE 4 9 2 5 - - 0.0
02/05:00pm 16.9 14.9 0.1 32 7.7 CALM 0 6 0 3 - - 0.0
02/04:30pm 16.8 13.9 -0.9 30 8.0 W 4 6 2 3 - - 0.0
02/04:00pm 16.6 13.3 -1.5 29 8.0 SW 6 11 3 6 - - 0.0
02/03:30pm 16.4 13.1 -1.2 30 7.8 W 6 13 3 7 - - 0.0
02/03:00pm 17.1 14.6 3.8 41 6.6 ESE 6 9 3 5 - - 0.0
02/02:30pm 16.9 14.6 2.9 39 6.8 NNW 4 9 2 5 - - 0.0
02/02:00pm 15.8 13.7 3.9 45 5.9 WSW 4 7 2 4 - - 0.0
02/01:30pm 14.1 10.9 -0.7 36 6.5 W 6 13 3 7 - - 0.0
02/01:00pm 14.2 10.0 -0.6 36 6.6 WSW 11 17 6 9 - - 0.0
02/12:30pm 13.3 9.4 -1.4 36 6.3 W 9 17 5 9 - - 0.0
02/12:00pm 12.9 8.4 -3.0 33 6.6 W 11 15 6 8 - - 0.0
02/11:30am 13.7 10.2 1.4 43 5.7 W 9 15 5 8 - - 0.0
02/11:00am 14.5 10.7 -3.8 28 7.6 N 7 17 4 9 - - 0.0
02/10:30am 13.9 9.8 -2.9 31 7.1 NNE 9 15 5 8 - - 0.0
02/10:00am 13.9 11.1 -2.9 31 7.1 NE 2 9 1 5 - - 0.0
02/09:30am 13.8 11.5 0.1 39 6.1 NE 2 6 1 3 - - 0.0
02/09:00am 12.7 9.9 -6.8 25 7.4 CALM 0 2 0 1 - - 0.0
02/08:30am 11.7 7.2 -11.1 19 7.8 WNW 7 9 4 5 - - 0.0
02/08:00am 11.7 7.8 -11.1 19 7.8 NNW 4 6 2 3 - - 0.0
02/07:30am 9.8 5.8 -12.1 20 7.1 NE 4 7 2 4 - - 0.0
02/07:00am 8.7 4.4 -8.8 28 6.1 NNE 7 9 4 5 - - 0.0
02/06:30am 9.8 5.8 -12.1 20 7.1 ENE 4 6 2 3 - - 0.0
02/06:00am 9.7 5.4 -11.0 22 6.9 ENE 6 7 3 4 - - 0.0
02/05:30am 9.5 5.2 -11.7 21 6.9 ESE 6 9 3 5 - - 0.0
02/05:00am 9.6 5.1 -11.6 21 7.0 SSE 7 9 4 5 - - 0.0
02/04:30am 9.8 5.5 -11.5 21 7.0 ESE 6 9 3 5 - - 0.0
02/04:00am 10.0 5.7 -11.9 20 7.2 SSE 6 9 3 5 - - 0.0
02/03:30am 10.7 7.4 -14.1 16 7.8 CALM 0 0 0 0 - - 0.0
02/03:00am 10.2 5.9 -11.1 21 7.1 SSW 6 7 3 4 - - 0.0
02/02:30am 10.3 6.4 -11.6 20 7.3 S 4 6 2 3 - - 0.0
02/02:00am 8.4 4.8 -7.7 31 5.7 SE 4 6 2 3 - - 0.0
02/01:30am 6.9 4.3 -4.8 43 4.4 CALM 0 4 0 2 - - 0.0
02/01:00am 6.2 3.7 -3.7 49 3.8 CALM 0 0 0 0 - - 0.0
02/12:30am 5.4 3.0 5.3 99 0.0 SE 7 9 4 5 - - 0.0
02/12:00am 5.5 2.8 5.4 99 0.0 ESE 9 11 5 6 - - 0.0
 
Date/Time
EDT
Temp
°C
App
Temp
°C
Dew
Point
Rel
Hum
%
Delta-T
°C
Wind Press
QNH
hPa
Press
MSL
hPa
Rain
since 9 am
mm
Dir
 
Spd
km/h
Gust
km/h
Spd
kts
Gust
kts
01/11:30pm 5.2 1.2 5.1 99 0.0 SE 15 19 8 10 - - 0.0
01/11:00pm 5.4 0.7 5.3 99 0.0 SSE 19 28 10 15 - - 0.0
01/10:30pm 5.9 -2.1 5.8 99 0.0 S 37 44 20 24 - - 0.0
01/10:00pm 6.0 -1.6 5.9 99 0.0 S 35 41 19 22 - - 0.0
01/09:30pm 6.3 -0.8 6.2 99 0.0 SSE 33 43 18 23 - - 0.0
01/09:00pm 6.8 -0.7 6.2 96 0.3 S 35 41 19 22 - - 0.0
01/08:30pm 7.3 0.7 6.2 93 0.5 S 30 39 16 21 - - 0.0
01/08:00pm 8.1 2.3 6.4 89 0.8 S 26 32 14 17 - - 0.0
01/07:30pm 9.0 2.5 6.4 84 1.3 S 30 37 16 20 - - 0.0
01/07:00pm 9.8 3.7 6.5 80 1.6 S 28 37 15 20 - - 0.0
01/06:30pm 10.9 6.4 7.0 77 2.0 SSW 20 35 11 19 - - 0.0
01/06:00pm 11.6 6.7 6.9 73 2.4 SSW 22 35 12 19 - - 0.0
01/05:30pm 11.7 7.3 7.6 76 2.1 S 20 43 11 23 - - 0.0
01/05:00pm 12.4 7.5 6.9 69 2.8 SSW 22 33 12 18 - - 0.0
01/04:30pm 12.7 7.1 7.0 68 2.9 SW 26 37 14 20 - - 0.0
01/04:00pm 12.9 7.7 7.1 68 3.0 SW 24 37 13 20 - - 0.0
01/03:30pm 13.8 10.6 8.4 70 2.9 SSW 15 26 8 14 - - 0.0
01/03:00pm 12.5 7.3 7.4 71 2.6 SW 24 48 13 26 - - 0.0
01/02:30pm 11.7 7.5 7.6 76 2.1 SW 19 32 10 17 - - 0.0
01/02:00pm 11.7 7.3 7.6 76 2.1 SW 20 32 11 17 - - 0.0
01/01:30pm 11.3 7.3 8.3 82 1.6 SW 19 32 10 17 - - 0.0
01/01:00pm 10.8 7.0 8.9 88 1.0 SW 19 32 10 17 - - 0.0
01/12:30pm 10.0 6.4 8.4 90 0.8 SW 17 32 9 17 - - 0.0
01/12:00pm 10.0 7.6 8.6 91 0.7 SW 11 22 6 12 - - 0.0
01/11:30am 9.1 5.0 8.8 98 0.2 SSW 20 35 11 19 - - 0.0
01/11:00am 8.7 5.5 8.6 99 0.1 SW 15 26 8 14 - - 0.0
01/10:30am 8.4 4.4 8.3 99 0.1 SW 19 32 10 17 - - 0.0
01/10:00am 7.6 2.8 7.5 99 0.1 SW 22 37 12 20 - - 0.0
01/09:30am 7.8 3.5 7.7 99 0.1 SW 20 39 11 21 - - 0.0
01/09:00am 7.1 2.2 7.0 99 0.0 SW 22 33 12 18 - - 19.2
01/08:30am 7.0 2.1 6.9 99 0.0 SW 22 43 12 23 - - 19.2
01/08:00am 7.0 1.7 6.9 99 0.0 SW 24 37 13 20 - - 19.2
01/07:30am 6.9 1.2 6.8 99 0.0 SW 26 37 14 20 - - 19.2
01/07:00am 7.1 1.5 7.0 99 0.0 SW 26 39 14 21 - - 19.2
01/06:30am 7.2 1.6 7.1 99 0.0 SW 26 39 14 21 - - 19.2
01/06:00am 7.2 2.0 7.1 99 0.0 SW 24 41 13 22 - - 19.0
01/05:30am 7.2 2.3 7.1 99 0.0 SW 22 35 12 19 - - 19.0
01/05:00am 7.1 0.7 7.0 99 0.0 SW 30 44 16 24 - - 19.0
01/04:30am 6.9 -0.9 6.8 99 0.0 SW 37 52 20 28 - - 19.0
01/04:00am 6.8 0.0 6.7 99 0.0 SW 32 41 17 22 - - 19.0
01/03:50am 7.0 -0.4 6.9 99 0.0 SW 35 54 19 29 - - 19.0
01/03:30am 7.0 -0.4 6.9 99 0.0 SW 35 52 19 28 - - 19.0
01/03:01am 7.0 -1.9 6.9 99 0.0 SW 43 61 23 33 - - 19.0
01/03:00am 6.9 -2.2 6.8 99 0.0 SW 44 61 24 33 - - 19.0
01/02:33am 7.2 -0.1 7.1 99 0.0 SW 35 56 19 30 - - 19.0
01/02:30am 7.3 0.0 7.2 99 0.0 SW 35 54 19 29 - - 19.0
01/02:00am 7.5 1.6 7.4 99 0.1 SW 28 46 15 25 - - 19.0
01/01:37am 7.6 1.7 7.5 99 0.1 SW 28 46 15 25 - - 19.0
01/01:30am 7.8 2.7 7.7 99 0.1 SW 24 41 13 22 - - 19.0
01/01:00am 8.7 3.1 8.6 99 0.1 WSW 28 37 15 20 - - 19.0
01/12:30am 9.8 6.5 9.7 99 0.1 WSW 17 35 9 19 - - 18.8
01/12:00am 11.1 8.6 10.9 99 0.1 WSW 15 30 8 16 - - 18.4
 
Date/Time
EDT
Temp
°C
App
Temp
°C
Dew
Point
Rel
Hum
%
Delta-T
°C
Wind Press
QNH
hPa
Press
MSL
hPa
Rain
since 9 am
mm
Dir
 
Spd
km/h
Gust
km/h
Spd
kts
Gust
kts
28/11:30pm 11.9 8.6 11.7 99 0.1 SW 20 43 11 23 - - 18.2
28/11:06pm 12.4 7.8 12.2 99 0.1 SW 28 46 15 25 - - 18.0
28/11:00pm 12.5 7.9 12.3 99 0.1 SW 28 41 15 22 - - 18.0
28/10:39pm 12.7 8.2 12.5 99 0.1 SW 28 48 15 26 - - 17.8
28/10:30pm 12.7 7.8 12.5 99 0.1 SW 30 44 16 24 - - 17.8
28/10:00pm 12.9 7.7 12.7 99 0.1 WSW 32 48 17 26 - - 17.8
28/09:30pm 12.8 7.5 12.6 99 0.1 SW 32 50 17 27 - - 17.8
28/09:14pm 12.8 8.3 12.6 99 0.1 WSW 28 48 15 26 - - 17.8
28/09:00pm 13.0 9.3 12.8 99 0.1 WSW 24 43 13 23 - - 17.6
28/08:30pm 13.6 8.6 13.4 99 0.1 W 32 44 17 24 - - 15.4
28/08:00pm 13.7 10.6 13.5 99 0.1 W 22 37 12 20 - - 14.0
28/07:31pm 14.3 10.3 14.1 99 0.1 WSW 28 48 15 26 - - 13.0
28/07:30pm 14.3 9.9 14.1 99 0.1 WSW 30 48 16 26 - - 13.0
28/07:00pm 14.8 9.6 14.6 99 0.1 WSW 35 57 19 31 - - 10.2
28/06:45pm 14.8 6.4 14.6 99 0.1 SW 52 78 28 42 - - 8.8
28/06:34pm 15.2 6.4 14.6 96 0.4 WSW 54 82 29 44 - - 6.0
28/06:32pm 15.6 7.7 14.8 95 0.5 WSW 50 80 27 43 - - 5.8
28/06:30pm 16.2 9.4 14.9 92 0.8 WSW 44 69 24 37 - - 5.6
28/06:15pm 19.6 16.5 13.3 67 3.8 SW 22 54 12 29 - - 0.2

Other Formats:

Comma delimited format used in spreadsheet applications
http://www.bom.gov.au/fwo/IDV60801/IDV60801.94833.axf

JavaScript Object Notation format (JSON) in row-major order
http://www.bom.gov.au/fwo/IDV60801/IDV60801.94833.json